Time;durP1;ratioP1;P1;durP2;ratioP2;P2;SDS_P1;SDS_P2;PMS_P1;PMS_P2;Temp;Humidity;BMP_temperature;BMP_pressure;BME280_temperature;BME280_humidity;BME280_pressure;Samples;Min_cycle;Max_cycle;Signal;HPM_P1;HPM_P2
2022/09/14 03:02:02;;;;;;;0.80;0.63;;;21.40;83.20;;;;;;5385011;23;20503;-70
2022/09/14 03:04:28;;;;;;;0.70;0.60;;;21.20;83.10;;;;;;4936241;29;20494;-70
2022/09/14 03:06:55;;;;;;;0.70;0.60;;;21.20;83.70;;;;;;4937653;29;20447;-70
2022/09/14 03:09:22;;;;;;;0.70;0.60;;;21.30;83.70;;;;;;4942264;29;20974;-69
2022/09/14 03:11:49;;;;;;;0.80;0.70;;;21.20;83.40;;;;;;4942439;29;20467;-70
2022/09/14 03:14:15;;;;;;;1.03;0.70;;;21.30;83.60;;;;;;4942464;29;20529;-70
2022/09/14 03:16:42;;;;;;;0.70;0.60;;;21.30;83.50;;;;;;4943879;29;20452;-70
2022/09/14 03:19:11;;;;;;;0.77;0.67;;;21.30;83.30;;;;;;4942167;29;20455;-70
2022/09/14 03:21:38;;;;;;;0.70;0.60;;;21.20;84.00;;;;;;4942343;29;20499;-70
2022/09/14 03:24:05;;;;;;;0.80;0.60;;;21.10;84.30;;;;;;4942371;29;20491;-69
2022/09/14 03:26:35;;;;;;;0.90;0.60;;;21.20;84.40;;;;;;4942388;29;20447;-70
2022/09/14 03:29:04;;;;;;;0.80;0.70;;;21.20;84.20;;;;;;4942056;29;20944;-69
2022/09/14 03:31:31;;;;;;;0.70;0.60;;;21.30;84.10;;;;;;4942272;29;20511;-70
2022/09/14 03:34:00;;;;;;;0.70;0.67;;;21.40;83.90;;;;;;4942537;29;20456;-70
2022/09/14 03:36:29;;;;;;;0.80;0.70;;;21.40;83.70;;;;;;4942041;29;20456;-70
2022/09/14 03:38:58;;;;;;;0.80;0.60;;;21.40;83.70;;;;;;4942322;29;20880;-70
2022/09/14 03:41:25;;;;;;;0.90;0.70;;;21.30;84.20;;;;;;4942248;29;20468;-70
2022/09/14 03:43:52;;;;;;;0.70;0.63;;;21.10;85.00;;;;;;4942157;29;20483;-70
2022/09/14 03:46:21;;;;;;;0.87;0.70;;;21.00;85.60;;;;;;4942231;29;20448;-70
2022/09/14 03:48:48;;;;;;;0.70;0.60;;;21.10;85.50;;;;;;4942181;29;20463;-70
2022/09/14 03:51:16;;;;;;;1.07;0.70;;;21.10;85.00;;;;;;4942111;29;20467;-70
2022/09/14 03:53:44;;;;;;;0.77;0.70;;;20.90;85.70;;;;;;4942615;29;20499;-71
2022/09/14 03:56:13;;;;;;;0.70;0.60;;;20.70;87.00;;;;;;4942168;29;20542;-70
2022/09/14 03:58:40;;;;;;;0.70;0.70;;;20.80;86.70;;;;;;4942079;29;20546;-70
2022/09/14 04:01:09;;;;;;;0.90;0.70;;;20.70;86.80;;;;;;4941885;29;20487;-71
2022/09/14 04:03:36;;;;;;;0.70;0.60;;;20.50;87.40;;;;;;4941988;29;20492;-70
2022/09/14 04:06:04;;;;;;;0.80;0.70;;;20.30;88.40;;;;;;4942082;29;20451;-70
2022/09/14 04:08:32;;;;;;;0.80;0.80;;;20.50;88.10;;;;;;4941724;29;20538;-70
2022/09/14 04:11:00;;;;;;;0.80;0.70;;;20.70;87.60;;;;;;4941944;29;20470;-71
2022/09/14 04:13:26;;;;;;;0.70;0.70;;;20.70;86.90;;;;;;4941968;29;20463;-71
2022/09/14 04:15:57;;;;;;;0.80;0.60;;;20.70;87.40;;;;;;4941947;29;20499;-71
2022/09/14 04:18:24;;;;;;;0.90;0.70;;;20.70;87.00;;;;;;4940473;29;20448;-70
2022/09/14 04:20:55;;;;;;;0.80;0.70;;;20.70;87.10;;;;;;4938355;29;20478;-71
2022/09/14 04:23:22;;;;;;;1.10;0.70;;;20.60;87.10;;;;;;4938834;29;20479;-71
2022/09/14 04:25:49;;;;;;;1.37;0.77;;;20.70;87.20;;;;;;4938854;29;20526;-71
2022/09/14 04:28:17;;;;;;;0.70;0.60;;;20.80;86.90;;;;;;4938729;29;20478;-70
2022/09/14 04:30:43;;;;;;;1.03;0.67;;;20.90;86.60;;;;;;4938650;29;20472;-70
2022/09/14 04:33:10;;;;;;;0.70;0.70;;;20.80;86.80;;;;;;4938676;29;20452;-70
2022/09/14 04:35:37;;;;;;;0.80;0.60;;;20.80;87.00;;;;;;4938646;29;20456;-71
2022/09/14 04:38:04;;;;;;;0.70;0.60;;;20.70;87.30;;;;;;4938484;29;20540;-71
2022/09/14 04:40:30;;;;;;;1.33;0.70;;;20.70;87.40;;;;;;4938395;29;20459;-70
2022/09/14 04:42:57;;;;;;;0.80;0.70;;;20.80;87.20;;;;;;4938361;29;20484;-71
2022/09/14 04:45:25;;;;;;;0.70;0.67;;;20.60;87.70;;;;;;4938429;29;20456;-71
2022/09/14 04:47:53;;;;;;;0.70;0.60;;;20.40;88.40;;;;;;4938394;29;20467;-70
2022/09/14 04:50:19;;;;;;;0.70;0.70;;;20.50;88.70;;;;;;4938072;29;21031;-71
2022/09/14 04:52:46;;;;;;;0.80;0.70;;;20.60;88.60;;;;;;4938003;29;20891;-70
2022/09/14 04:55:13;;;;;;;0.70;0.60;;;20.50;88.70;;;;;;4938326;29;20448;-71
2022/09/14 04:57:39;;;;;;;0.73;0.70;;;20.50;88.90;;;;;;4938214;29;20488;-70
2022/09/14 05:00:07;;;;;;;0.70;0.70;;;20.50;89.00;;;;;;4938153;29;20456;-70
2022/09/14 05:02:39;;;;;;;0.90;0.80;;;20.40;89.40;;;;;;4937901;29;20488;-70
2022/09/14 05:05:06;;;;;;;0.90;0.60;;;20.40;89.40;;;;;;4938154;29;20533;-70
2022/09/14 05:07:33;;;;;;;0.70;0.60;;;20.40;89.90;;;;;;4938214;29;20452;-70
2022/09/14 05:10:00;;;;;;;0.70;0.60;;;20.50;89.70;;;;;;4938067;29;20459;-70
2022/09/14 05:12:26;;;;;;;0.90;0.70;;;20.40;89.70;;;;;;4937936;29;20559;-71
2022/09/14 05:14:53;;;;;;;0.80;0.80;;;20.40;89.80;;;;;;4937754;29;20999;-71
2022/09/14 05:17:20;;;;;;;0.80;0.70;;;20.30;90.20;;;;;;4937942;29;20867;-70
2022/09/14 05:19:48;;;;;;;1.30;0.90;;;20.30;90.20;;;;;;4937868;29;20519;-70
2022/09/14 05:22:15;;;;;;;0.80;0.70;;;20.30;90.10;;;;;;4937507;29;20474;-70
2022/09/14 05:24:42;;;;;;;0.70;0.70;;;20.20;90.50;;;;;;4937939;29;20484;-70
2022/09/14 05:27:08;;;;;;;0.70;0.70;;;20.20;91.10;;;;;;4937779;29;20456;-70
2022/09/14 05:29:38;;;;;;;0.80;0.70;;;20.20;91.00;;;;;;4937577;29;20507;-71
2022/09/14 05:32:05;;;;;;;0.73;0.73;;;20.30;91.20;;;;;;4937599;29;20558;-71
2022/09/14 05:34:32;;;;;;;0.80;0.70;;;20.20;91.30;;;;;;4937529;29;20444;-71
2022/09/14 05:36:59;;;;;;;0.90;0.73;;;20.40;91.00;;;;;;4937255;29;20874;-71
2022/09/14 05:39:26;;;;;;;0.80;0.70;;;20.50;90.60;;;;;;4937494;29;20874;-71
2022/09/14 05:41:53;;;;;;;0.90;0.80;;;20.50;90.90;;;;;;4937096;29;20531;-71
2022/09/14 05:44:20;;;;;;;0.83;0.67;;;20.60;90.50;;;;;;4937298;29;20480;-70
2022/09/14 05:46:46;;;;;;;0.70;0.67;;;20.60;90.80;;;;;;4937338;29;20506;-70
2022/09/14 05:49:13;;;;;;;0.70;0.70;;;20.60;90.70;;;;;;4937245;29;20452;-70
2022/09/14 05:51:39;;;;;;;0.70;0.70;;;20.70;90.20;;;;;;4937200;29;20468;-70
2022/09/14 05:54:10;;;;;;;0.70;0.70;;;20.70;90.50;;;;;;4937381;29;20448;-70
2022/09/14 05:56:37;;;;;;;0.70;0.60;;;20.80;90.10;;;;;;4937205;29;20444;-70
2022/09/14 05:59:04;;;;;;;0.80;0.70;;;20.80;90.30;;;;;;4937108;29;20507;-70
2022/09/14 06:01:32;;;;;;;0.93;0.80;;;21.00;90.10;;;;;;4936727;29;20538;-71
2022/09/14 06:04:01;;;;;;;0.70;0.70;;;21.10;89.50;;;;;;4936951;29;20484;-70
2022/09/14 06:06:29;;;;;;;0.80;0.73;;;21.20;89.00;;;;;;4936881;29;20536;-71
2022/09/14 06:08:56;;;;;;;0.70;0.60;;;21.30;88.90;;;;;;4937054;29;20463;-70
2022/09/14 06:11:27;;;;;;;0.80;0.70;;;21.40;88.90;;;;;;4936769;29;20478;-71
2022/09/14 06:13:54;;;;;;;0.80;0.70;;;21.60;88.50;;;;;;4936632;29;21045;-70
2022/09/14 06:16:22;;;;;;;0.90;0.60;;;21.50;87.60;;;;;;4936833;29;20463;-71
2022/09/14 06:18:49;;;;;;;1.00;0.60;;;21.50;88.20;;;;;;4936751;29;20451;-70
2022/09/14 06:21:18;;;;;;;0.70;0.70;;;21.80;88.60;;;;;;4936352;29;20909;-71
2022/09/14 06:23:46;;;;;;;0.80;0.60;;;22.40;86.90;;;;;;4936287;29;20844;-70
2022/09/14 06:26:12;;;;;;;0.80;0.60;;;22.70;84.60;;;;;;4936687;29;20523;-70
2022/09/14 06:28:40;;;;;;;0.80;0.70;;;22.90;84.30;;;;;;4936559;29;20543;-70
2022/09/14 06:31:08;;;;;;;0.90;0.70;;;23.00;82.70;;;;;;4936575;29;20484;-71
2022/09/14 06:33:35;;;;;;;0.90;0.70;;;23.10;83.40;;;;;;4936606;29;20822;-71
2022/09/14 06:36:06;;;;;;;0.80;0.60;;;23.30;82.30;;;;;;4936569;29;20503;-71
2022/09/14 06:38:33;;;;;;;0.70;0.70;;;23.40;82.30;;;;;;4936980;29;20939;-71
2022/09/14 06:41:01;;;;;;;0.70;0.60;;;23.10;82.50;;;;;;4936393;29;20472;-71
2022/09/14 06:43:29;;;;;;;1.00;0.90;;;23.00;83.00;;;;;;4936031;29;21006;-71
2022/09/14 06:46:00;;;;;;;0.73;0.60;;;23.10;83.30;;;;;;4936376;29;20448;-70
2022/09/14 06:48:27;;;;;;;0.70;0.50;;;23.00;83.30;;;;;;4936171;29;20912;-71
2022/09/14 06:50:53;;;;;;;0.80;0.70;;;23.10;83.70;;;;;;4936017;29;20577;-70
2022/09/14 06:53:20;;;;;;;0.70;0.50;;;23.20;83.80;;;;;;4936369;29;20452;-70
2022/09/14 06:55:47;;;;;;;0.80;0.60;;;23.20;83.30;;;;;;4936057;29;21014;-71
2022/09/14 06:58:14;;;;;;;0.80;0.70;;;23.10;83.90;;;;;;4936265;29;20448;-70
2022/09/14 07:00:41;;;;;;;1.17;0.70;;;23.00;83.90;;;;;;4936052;29;20511;-71
2022/09/14 07:03:09;;;;;;;0.90;0.70;;;23.10;84.00;;;;;;4936287;29;20801;-71
2022/09/14 07:05:36;;;;;;;0.73;0.63;;;23.20;83.30;;;;;;4935994;29;20827;-70
2022/09/14 07:08:02;;;;;;;0.70;0.60;;;23.30;83.00;;;;;;4936576;29;20519;-70
2022/09/14 07:10:29;;;;;;;0.80;0.70;;;23.30;83.10;;;;;;4936065;29;20531;-71
2022/09/14 07:12:58;;;;;;;0.80;0.60;;;23.10;83.80;;;;;;4936108;29;20456;-71
2022/09/14 07:15:24;;;;;;;0.80;0.70;;;23.00;84.70;;;;;;4936064;29;20456;-71
2022/09/14 07:17:51;;;;;;;0.77;0.60;;;23.10;85.20;;;;;;4936074;29;20452;-71
2022/09/14 07:20:19;;;;;;;0.80;0.60;;;23.20;85.50;;;;;;4936029;29;20952;-71
2022/09/14 07:22:46;;;;;;;0.70;0.60;;;23.30;83.90;;;;;;4935970;29;20472;-71
2022/09/14 07:25:12;;;;;;;0.80;0.67;;;23.10;84.40;;;;;;4935948;29;20484;-71
2022/09/14 07:27:39;;;;;;;0.80;0.60;;;23.20;84.10;;;;;;4935953;29;20503;-71
2022/09/14 07:30:07;;;;;;;0.80;0.77;;;22.80;84.90;;;;;;4935699;29;20966;-70
2022/09/14 07:32:34;;;;;;;0.80;0.70;;;22.70;85.90;;;;;;4935417;29;20480;-70
2022/09/14 07:35:00;;;;;;;0.80;0.70;;;22.80;86.50;;;;;;4935945;29;20453;-70
2022/09/14 07:37:29;;;;;;;0.70;0.70;;;23.10;86.20;;;;;;4935980;29;20452;-70
2022/09/14 07:39:57;;;;;;;0.90;0.70;;;23.30;83.90;;;;;;4935664;29;20499;-69
2022/09/14 07:42:23;;;;;;;0.70;0.60;;;23.10;85.20;;;;;;4935469;29;20564;-70
2022/09/14 07:44:50;;;;;;;0.70;0.60;;;23.10;84.60;;;;;;4935882;29;20487;-70
2022/09/14 07:47:16;;;;;;;0.80;0.60;;;23.30;85.10;;;;;;4935649;29;21073;-69
2022/09/14 07:49:43;;;;;;;0.80;0.70;;;23.50;83.20;;;;;;4936225;29;20456;-69
2022/09/14 07:52:10;;;;;;;0.90;0.60;;;23.50;83.80;;;;;;4935650;29;20479;-69
2022/09/14 07:54:38;;;;;;;1.00;0.60;;;23.70;84.90;;;;;;4937006;29;21015;-69
2022/09/14 07:57:05;;;;;;;0.77;0.60;;;23.90;82.30;;;;;;4939331;29;20456;-69
2022/09/14 07:59:32;;;;;;;0.80;0.70;;;23.80;82.80;;;;;;4939327;29;20478;-69
2022/09/14 08:01:58;;;;;;;0.70;0.50;;;23.80;81.80;;;;;;4938856;29;21097;-70
2022/09/14 08:04:25;;;;;;;0.70;0.60;;;23.80;82.40;;;;;;4939126;29;20900;-70
2022/09/14 08:06:52;;;;;;;0.80;0.70;;;24.10;83.00;;;;;;4939583;29;20535;-70
2022/09/14 08:09:18;;;;;;;0.80;0.67;;;24.20;81.90;;;;;;4939158;29;20476;-70
2022/09/14 08:11:46;;;;;;;0.70;0.60;;;24.40;81.00;;;;;;4939202;29;20468;-70
2022/09/14 08:14:14;;;;;;;0.70;0.50;;;24.70;80.70;;;;;;4939039;29;20451;-70
2022/09/14 08:16:40;;;;;;;0.70;0.70;;;24.70;79.30;;;;;;4939154;29;20456;-70
2022/09/14 08:19:11;;;;;;;0.70;0.60;;;24.70;79.80;;;;;;4938947;29;20452;-70
2022/09/14 08:21:38;;;;;;;0.80;0.60;;;24.70;80.40;;;;;;4938904;29;20472;-70
2022/09/14 08:24:05;;;;;;;0.70;0.60;;;24.70;80.40;;;;;;4938808;29;20601;-70
2022/09/14 08:26:35;;;;;;;0.70;0.60;;;24.90;80.00;;;;;;4938521;29;20487;-70
2022/09/14 08:29:04;;;;;;;0.80;0.70;;;25.10;80.60;;;;;;4938455;29;20483;-70
2022/09/14 08:31:35;;;;;;;0.80;0.70;;;25.30;78.80;;;;;;4938654;29;20524;-70
2022/09/14 08:34:03;;;;;;;0.70;0.60;;;25.30;79.20;;;;;;4938699;29;20487;-71
2022/09/14 08:36:31;;;;;;;1.00;0.70;;;25.30;78.60;;;;;;4938600;29;20534;-70
2022/09/14 08:39:00;;;;;;;0.90;0.70;;;25.40;78.00;;;;;;4938494;29;20456;-70
2022/09/14 08:41:29;;;;;;;0.80;0.60;;;25.20;78.60;;;;;;4938111;29;21030;-70
2022/09/14 08:43:59;;;;;;;0.80;0.60;;;24.80;78.70;;;;;;4938444;29;20504;-69
2022/09/14 08:46:31;;;;;;;0.97;0.60;;;24.40;80.00;;;;;;4938178;29;20452;-70
2022/09/14 08:48:59;;;;;;;1.10;0.80;;;24.20;80.80;;;;;;4938126;29;20908;-70
2022/09/14 08:51:26;;;;;;;0.80;0.60;;;24.10;81.80;;;;;;4938365;29;20474;-70
2022/09/14 08:53:55;;;;;;;0.70;0.60;;;23.90;82.00;;;;;;4938057;29;20998;-71
2022/09/14 08:56:25;;;;;;;0.80;0.63;;;24.00;82.00;;;;;;4938286;29;20471;-70
2022/09/14 08:59:01;;;;;;;0.80;0.70;;;24.20;82.50;;;;;;4938220;29;20614;-70
2022/09/14 09:01:39;;;;;;;1.00;0.83;;;24.20;81.10;;;;;;4938046;29;20487;-70
2022/09/14 09:04:24;;;;;;;0.80;0.70;;;24.40;81.00;;;;;;4937894;29;20848;-70
2022/09/14 09:06:57;;;;;;;0.80;0.60;;;24.60;79.90;;;;;;4937788;29;20805;-71
2022/09/14 09:09:31;;;;;;;0.70;0.60;;;24.70;80.30;;;;;;4938186;29;20468;-71
2022/09/14 09:11:59;;;;;;;1.00;0.80;;;24.80;79.90;;;;;;4938221;29;20519;-71
2022/09/14 09:14:31;;;;;;;0.90;0.60;;;24.90;78.50;;;;;;4938223;29;20455;-70
2022/09/14 09:17:01;;;;;;;0.80;0.60;;;24.70;78.30;;;;;;4939628;29;20444;-70
2022/09/14 09:19:31;;;;;;;0.80;0.63;;;24.70;79.70;;;;;;4937968;29;20464;-70
2022/09/14 09:22:03;;;;;;;0.70;0.60;;;24.70;80.70;;;;;;4937754;29;20555;-70
2022/09/14 09:24:39;;;;;;;0.80;0.70;;;24.70;79.90;;;;;;4937536;29;20899;-70
2022/09/14 09:27:10;;;;;;;0.70;0.60;;;24.90;78.60;;;;;;4937491;29;20971;-71
2022/09/14 09:29:37;;;;;;;0.80;0.70;;;25.00;80.50;;;;;;4937430;29;20432;-70
2022/09/14 09:32:07;;;;;;;0.90;0.67;;;25.20;78.00;;;;;;4937634;29;20475;-70
2022/09/14 09:34:35;;;;;;;0.70;0.60;;;25.10;77.10;;;;;;4937654;29;20437;-69
2022/09/14 09:37:02;;;;;;;0.70;0.50;;;25.10;76.30;;;;;;4937534;29;20452;-70
2022/09/14 09:39:31;;;;;;;0.80;0.63;;;25.00;76.90;;;;;;4937517;29;20878;-70
2022/09/14 09:42:01;;;;;;;0.70;0.60;;;25.00;77.50;;;;;;4937904;29;20559;-69
2022/09/14 09:44:28;;;;;;;0.80;0.60;;;24.90;76.80;;;;;;4937300;29;21080;-70
2022/09/14 09:46:56;;;;;;;0.80;0.70;;;25.10;78.40;;;;;;4937294;29;20452;-70
2022/09/14 09:49:29;;;;;;;0.73;0.60;;;25.30;76.50;;;;;;4937404;29;20952;-70
2022/09/14 09:51:56;;;;;;;0.80;0.60;;;25.50;76.10;;;;;;4937293;29;20477;-70
2022/09/14 09:54:27;;;;;;;0.90;0.70;;;25.80;75.80;;;;;;4937034;29;20847;-71
2022/09/14 09:56:56;;;;;;;0.70;0.60;;;25.70;75.40;;;;;;4937404;29;20444;-70
2022/09/14 09:59:35;;;;;;;0.70;0.60;;;26.00;75.00;;;;;;4937181;29;20452;-70
2022/09/14 10:02:28;;;;;;;1.10;0.70;;;26.00;76.00;;;;;;4936737;29;20492;-70
2022/09/14 10:05:06;;;;;;;1.00;0.70;;;26.10;74.60;;;;;;4936575;29;20884;-69
2022/09/14 10:07:35;;;;;;;0.80;0.70;;;26.10;73.90;;;;;;4936883;29;20436;-70
2022/09/14 10:10:04;;;;;;;0.80;0.63;;;26.10;72.70;;;;;;4936898;29;20503;-70
2022/09/14 10:12:31;;;;;;;0.80;0.80;;;26.00;73.70;;;;;;4936864;29;20472;-70
2022/09/14 10:15:15;;;;;;;0.70;0.60;;;26.10;75.80;;;;;;4936828;29;20948;-69
2022/09/14 10:17:54;;;;;;;0.80;0.60;;;26.20;73.40;;;;;;4936142;29;20440;-70
2022/09/14 10:20:25;;;;;;;0.70;0.60;;;26.40;74.30;;;;;;4936976;29;20447;-70
2022/09/14 10:22:52;;;;;;;0.70;0.60;;;26.60;73.10;;;;;;4936602;29;20831;-70
2022/09/14 10:25:24;;;;;;;0.70;0.60;;;26.60;71.50;;;;;;4936463;29;21019;-71
2022/09/14 10:27:59;;;;;;;0.70;0.70;;;26.40;71.60;;;;;;4936455;29;20944;-70
2022/09/14 10:30:28;;;;;;;0.70;0.60;;;26.30;72.10;;;;;;4936621;29;20797;-69
2022/09/14 10:32:59;;;;;;;0.70;0.60;;;26.40;71.00;;;;;;4936257;29;20460;-69
2022/09/14 10:35:35;;;;;;;0.70;0.60;;;26.20;73.30;;;;;;4936696;29;20844;-70
2022/09/14 10:38:18;;;;;;;0.70;0.60;;;26.40;72.50;;;;;;4936487;29;20436;-69
2022/09/14 10:40:51;;;;;;;0.80;0.60;;;26.60;72.40;;;;;;4936875;29;20471;-69
2022/09/14 10:43:25;;;;;;;0.80;0.70;;;26.60;71.30;;;;;;4936646;29;20444;-70
2022/09/14 10:45:56;;;;;;;0.70;0.60;;;26.50;70.80;;;;;;4936404;29;20527;-69
2022/09/14 10:48:45;;;;;;;0.77;0.60;;;26.70;71.40;;;;;;4936356;29;20495;-69
2022/09/14 10:51:40;;;;;;;0.80;0.70;;;26.90;72.60;;;;;;4936269;29;20828;-69
2022/09/14 10:54:20;;;;;;;0.80;0.70;;;26.70;70.30;;;;;;4936269;29;20464;-69
2022/09/14 10:57:00;;;;;;;1.10;0.70;;;26.60;69.90;;;;;;4936326;29;20446;-68
2022/09/14 10:59:32;;;;;;;0.80;0.60;;;26.70;70.50;;;;;;4936177;29;20448;-69
2022/09/14 11:02:18;;;;;;;0.80;0.60;;;26.70;70.80;;;;;;4935844;29;20480;-69
2022/09/14 11:05:06;;;;;;;0.80;0.60;;;26.50;70.00;;;;;;4936206;29;20987;-69
2022/09/14 11:07:38;;;;;;;0.70;0.60;;;26.10;71.40;;;;;;4937730;29;20448;-69
2022/09/14 11:10:18;;;;;;;0.80;0.70;;;26.20;72.40;;;;;;4937486;29;20444;-68
2022/09/14 11:12:55;;;;;;;1.17;0.60;;;26.40;72.90;;;;;;4937570;29;20472;-70
2022/09/14 11:15:28;;;;;;;0.70;0.50;;;26.70;70.60;;;;;;4937636;29;20527;-72
2022/09/14 11:18:08;;;;;;;0.80;0.60;;;26.80;71.40;;;;;;4936473;29;20821;-71
2022/09/14 11:20:44;;;;;;;0.70;0.70;;;27.10;68.80;;;;;;4936963;29;20447;-72
2022/09/14 11:23:30;;;;;;;0.70;0.60;;;27.20;70.50;;;;;;4937087;29;20440;-70
2022/09/14 11:26:00;;;;;;;1.50;0.70;;;27.40;67.70;;;;;;4936739;29;20467;-71
2022/09/14 11:28:32;;;;;;;0.80;0.70;;;27.50;67.30;;;;;;4937773;29;20463;-71
2022/09/14 11:31:05;;;;;;;1.10;1.00;;;27.50;66.10;;;;;;4940812;29;20471;-71
2022/09/14 11:33:37;;;;;;;0.70;0.63;;;27.40;68.40;;;;;;4940497;29;20456;-71
2022/09/14 11:36:09;;;;;;;0.70;0.50;;;27.40;65.90;;;;;;4940687;29;20439;-71
2022/09/14 11:38:44;;;;;;;0.70;0.60;;;27.20;66.80;;;;;;4940568;29;20460;-71
2022/09/14 11:41:20;;;;;;;0.80;0.60;;;27.20;66.90;;;;;;4940345;29;20482;-70
2022/09/14 11:43:50;;;;;;;0.70;0.60;;;27.40;66.80;;;;;;4940720;29;20460;-71
2022/09/14 11:46:21;;;;;;;0.83;0.83;;;27.40;65.30;;;;;;4940492;29;20472;-71
2022/09/14 11:48:54;;;;;;;0.70;0.60;;;27.60;65.80;;;;;;4940463;29;20455;-71
2022/09/14 11:51:24;;;;;;;0.70;0.70;;;27.60;64.40;;;;;;4941021;29;20471;-71
2022/09/14 11:53:52;;;;;;;0.70;0.60;;;27.30;65.10;;;;;;4940141;29;20479;-72
2022/09/14 11:56:25;;;;;;;0.80;0.60;;;27.20;65.10;;;;;;4939701;29;20831;-71
2022/09/14 11:58:54;;;;;;;0.70;0.60;;;26.90;66.60;;;;;;4940302;29;20444;-71
2022/09/14 12:01:35;;;;;;;0.90;0.60;;;26.80;67.30;;;;;;4940017;29;20500;-71
2022/09/14 12:04:08;;;;;;;0.80;0.60;;;27.00;66.70;;;;;;4939750;29;20436;-71
2022/09/14 12:06:56;;;;;;;0.80;0.70;;;27.00;67.40;;;;;;4939223;29;20487;-71
2022/09/14 12:09:53;;;;;;;0.70;0.60;;;26.70;67.70;;;;;;4934870;29;20507;-71
2022/09/14 12:12:38;;;;;;;1.00;0.80;;;26.60;67.90;;;;;;4940712;29;20580;-71
2022/09/14 12:15:20;;;;;;;0.80;0.63;;;26.60;67.10;;;;;;4939597;29;20850;-71
2022/09/14 12:17:47;;;;;;;0.70;0.60;;;26.40;67.40;;;;;;4940202;29;20471;-71
2022/09/14 12:20:40;;;;;;;0.70;0.70;;;26.40;67.80;;;;;;4939733;29;20515;-72
2022/09/14 12:23:25;;;;;;;0.70;0.60;;;26.20;68.40;;;;;;4936362;29;20959;-70
2022/09/14 12:26:13;;;;;;;0.73;0.60;;;26.00;69.20;;;;;;4938718;29;21065;-70
2022/09/14 12:28:46;;;;;;;0.80;0.77;;;26.00;69.50;;;;;;4939001;29;20483;-71
2022/09/14 12:31:39;;;;;;;0.90;0.70;;;25.80;70.60;;;;;;4938923;29;20494;-71
2022/09/14 12:34:17;;;;;;;1.00;0.60;;;25.60;70.20;;;;;;4939228;29;20444;-71
2022/09/14 12:37:01;;;;;;;0.80;0.60;;;25.30;70.40;;;;;;4938748;29;20436;-71
2022/09/14 12:39:29;;;;;;;0.70;0.70;;;25.30;70.80;;;;;;4936661;29;20467;-71
2022/09/14 12:42:20;;;;;;;2.33;0.70;;;25.10;72.30;;;;;;4938583;29;20556;-72
2022/09/14 12:44:48;;;;;;;0.90;0.70;;;25.00;72.20;;;;;;4935964;29;20467;-71
2022/09/14 12:47:56;;;;;;;0.80;0.60;;;24.80;72.80;;;;;;4938501;29;20491;-71
2022/09/14 12:50:23;;;;;;;0.80;0.70;;;24.70;73.70;;;;;;4937672;29;20905;-70
2022/09/14 12:53:14;;;;;;;0.80;0.70;;;24.30;75.60;;;;;;4938394;29;20452;-71
2022/09/14 12:55:47;;;;;;;0.80;0.77;;;24.20;77.10;;;;;;4938499;29;20432;-71
2022/09/14 12:58:42;;;;;;;0.70;0.60;;;24.20;78.00;;;;;;4938554;29;20775;-71
2022/09/14 13:01:28;;;;;;;0.90;0.60;;;24.00;79.20;;;;;;4938055;29;20480;-71
2022/09/14 13:03:57;;;;;;;0.70;0.60;;;24.00;79.60;;;;;;4938323;29;20447;-70
2022/09/14 13:06:32;;;;;;;0.77;0.60;;;23.80;80.40;;;;;;4937862;29;20868;-72
2022/09/14 13:09:00;;;;;;;0.73;0.63;;;23.70;80.70;;;;;;4937923;29;20912;-71
2022/09/14 13:11:31;;;;;;;0.80;0.70;;;23.80;81.10;;;;;;4938103;29;20527;-71
2022/09/14 13:14:00;;;;;;;1.00;0.67;;;23.80;81.40;;;;;;4938095;29;20534;-71
2022/09/14 13:16:35;;;;;;;0.80;0.70;;;23.80;82.10;;;;;;4938023;29;21024;-70
2022/09/14 13:19:04;;;;;;;1.00;0.60;;;23.30;82.50;;;;;;4937973;29;20427;-71
2022/09/14 13:21:31;;;;;;;0.70;0.70;;;23.00;84.40;;;;;;4937520;29;20896;-71
2022/09/14 13:23:58;;;;;;;0.70;0.60;;;22.90;85.20;;;;;;4938096;29;20538;-72
2022/09/14 13:26:27;;;;;;;0.80;0.60;;;22.90;84.00;;;;;;4937823;29;20590;-70
2022/09/14 13:28:55;;;;;;;0.80;0.70;;;22.80;84.60;;;;;;4937839;29;20490;-71
2022/09/14 13:31:29;;;;;;;0.70;0.70;;;22.60;85.60;;;;;;4937658;29;20471;-71
2022/09/14 13:33:59;;;;;;;1.03;0.60;;;22.40;86.80;;;;;;4937377;29;20975;-71
2022/09/14 13:36:28;;;;;;;0.80;0.60;;;22.40;86.80;;;;;;4937725;29;20448;-71
2022/09/14 13:38:57;;;;;;;0.80;0.53;;;22.40;86.80;;;;;;4937338;29;21026;-71
2022/09/14 13:41:25;;;;;;;0.70;0.60;;;22.30;86.10;;;;;;4937631;29;20482;-71
2022/09/14 13:43:54;;;;;;;0.70;0.60;;;22.40;86.70;;;;;;4937659;29;20452;-72
2022/09/14 13:46:22;;;;;;;0.70;0.60;;;22.40;87.10;;;;;;4937519;29;20491;-71
2022/09/14 13:48:49;;;;;;;0.90;0.70;;;22.30;86.70;;;;;;4937271;29;20945;-72
2022/09/14 13:51:23;;;;;;;0.80;0.60;;;22.40;87.30;;;;;;4937380;29;20472;-72
2022/09/14 13:53:52;;;;;;;0.70;0.60;;;22.50;86.30;;;;;;4937517;29;20467;-72
2022/09/14 13:56:21;;;;;;;1.10;0.60;;;22.60;85.70;;;;;;4937295;29;20480;-72
2022/09/14 13:58:50;;;;;;;0.70;0.50;;;22.70;85.90;;;;;;4937644;29;20447;-71
2022/09/14 14:01:26;;;;;;;1.20;1.03;;;22.80;84.80;;;;;;4937089;29;20480;-71
2022/09/14 14:03:53;;;;;;;0.70;0.60;;;22.90;84.10;;;;;;4937116;29;20455;-72
2022/09/14 14:06:24;;;;;;;0.70;0.60;;;23.10;83.60;;;;;;4937252;29;20484;-71
2022/09/14 14:08:59;;;;;;;0.80;0.60;;;23.30;84.10;;;;;;4936933;29;20874;-72
2022/09/14 14:11:28;;;;;;;1.23;0.70;;;23.20;82.50;;;;;;4936917;29;20979;-72
2022/09/14 14:13:55;;;;;;;0.70;0.60;;;23.20;82.90;;;;;;4937058;29;20452;-72
2022/09/14 14:16:23;;;;;;;0.70;0.60;;;23.10;83.50;;;;;;4937113;29;20484;-72
2022/09/14 14:18:53;;;;;;;0.80;0.63;;;23.00;83.50;;;;;;4936928;29;20463;-72
2022/09/14 14:21:32;;;;;;;0.70;0.60;;;22.90;83.40;;;;;;4936829;29;20524;-72
2022/09/14 14:24:28;;;;;;;0.70;0.60;;;22.60;84.60;;;;;;4936723;29;20547;-72
2022/09/14 14:26:57;;;;;;;0.70;0.60;;;22.60;85.00;;;;;;4936927;29;20480;-72
2022/09/14 14:29:25;;;;;;;0.70;0.60;;;22.60;84.80;;;;;;4936672;29;20503;-71
2022/09/14 14:31:53;;;;;;;0.70;0.60;;;22.50;85.60;;;;;;4936822;29;20476;-71
2022/09/14 14:34:22;;;;;;;0.70;0.60;;;22.50;85.10;;;;;;4936687;29;20451;-72
2022/09/14 14:36:50;;;;;;;0.70;0.60;;;22.10;86.60;;;;;;4936815;29;20447;-72
2022/09/14 14:39:19;;;;;;;0.70;0.53;;;22.10;87.00;;;;;;4936302;29;20463;-72
2022/09/14 14:41:47;;;;;;;0.70;0.50;;;22.10;86.60;;;;;;4936526;29;20476;-72
2022/09/14 14:44:17;;;;;;;1.07;0.60;;;21.90;87.10;;;;;;4936542;29;20455;-72
2022/09/14 14:46:44;;;;;;;0.80;0.60;;;22.00;86.80;;;;;;4936434;29;20531;-72
2022/09/14 14:49:12;;;;;;;1.53;0.60;;;21.90;86.50;;;;;;4936389;29;20459;-71
2022/09/14 14:51:39;;;;;;;0.70;0.60;;;21.70;86.10;;;;;;4936346;29;20524;-72
2022/09/14 14:54:08;;;;;;;0.70;0.50;;;21.70;85.80;;;;;;4936004;29;21007;-71
2022/09/14 14:56:36;;;;;;;0.90;0.60;;;21.70;85.60;;;;;;4936245;29;20479;-72
2022/09/14 14:59:03;;;;;;;0.70;0.60;;;21.50;85.50;;;;;;4936310;29;20511;-72
2022/09/14 15:01:29;;;;;;;0.80;0.60;;;21.40;86.30;;;;;;4935674;29;21004;-72
2022/09/14 15:03:57;;;;;;;0.70;0.50;;;21.20;86.70;;;;;;4936142;29;20452;-73
2022/09/14 15:06:27;;;;;;;0.70;0.60;;;21.10;87.60;;;;;;4936044;29;20543;-72
2022/09/14 15:08:54;;;;;;;0.70;0.60;;;21.20;87.40;;;;;;4936450;29;20460;-72
2022/09/14 15:11:22;;;;;;;0.80;0.60;;;21.20;86.70;;;;;;4936057;29;20568;-73
2022/09/14 15:13:49;;;;;;;1.03;0.60;;;21.10;86.50;;;;;;4936231;29;20447;-73
2022/09/14 15:16:16;;;;;;;0.70;0.60;;;21.10;86.40;;;;;;4937657;29;20814;-73
2022/09/14 15:18:43;;;;;;;0.70;0.50;;;21.00;87.10;;;;;;4936046;29;20490;-71
2022/09/14 15:21:11;;;;;;;0.73;0.57;;;21.00;86.90;;;;;;4936056;29;20491;-71
2022/09/14 15:23:38;;;;;;;0.70;0.50;;;21.00;87.00;;;;;;4935699;29;21011;-71
2022/09/14 15:26:05;;;;;;;0.70;0.50;;;20.90;86.90;;;;;;4936031;29;20570;-69
2022/09/14 15:28:37;;;;;;;0.70;0.50;;;20.90;87.00;;;;;;4935591;29;21015;-70
2022/09/14 15:31:04;;;;;;;0.70;0.53;;;20.90;87.60;;;;;;4935956;29;20476;-71
2022/09/14 15:33:31;;;;;;;0.70;0.50;;;20.90;87.70;;;;;;4935898;29;20508;-70
2022/09/14 15:35:58;;;;;;;0.70;0.60;;;21.10;87.10;;;;;;4935863;29;20482;-70
2022/09/14 15:38:25;;;;;;;0.70;0.60;;;21.20;86.30;;;;;;4935822;29;20459;-70
2022/09/14 15:40:52;;;;;;;0.80;0.60;;;21.20;86.40;;;;;;4935790;29;20479;-71
2022/09/14 15:43:19;;;;;;;0.70;0.50;;;21.20;86.30;;;;;;4935946;29;20874;-70
2022/09/14 15:45:47;;;;;;;0.73;0.50;;;21.20;86.20;;;;;;4935958;29;20507;-70
2022/09/14 15:48:15;;;;;;;0.70;0.50;;;21.20;86.70;;;;;;4935691;29;21051;-71
2022/09/14 15:50:43;;;;;;;0.70;0.50;;;21.00;86.30;;;;;;4935959;29;20452;-70
2022/09/14 15:53:10;;;;;;;0.70;0.60;;;20.80;87.00;;;;;;4935887;29;20539;-70
2022/09/14 15:55:39;;;;;;;0.70;0.60;;;20.80;87.30;;;;;;4935660;29;20544;-70
2022/09/14 15:58:06;;;;;;;0.70;0.50;;;21.00;87.20;;;;;;4935632;29;20480;-70
2022/09/14 16:00:33;;;;;;;1.47;0.60;;;21.00;87.10;;;;;;4935615;29;20531;-71
2022/09/14 16:03:02;;;;;;;0.70;0.50;;;21.00;87.00;;;;;;4935585;29;20869;-71
2022/09/14 16:05:29;;;;;;;0.80;0.60;;;20.80;87.20;;;;;;4935578;29;20464;-71